CYBW/YBW METAR and TAF weather

Enter ICAO airport designator
Station Type Date Time Source
CYBW METAR 2022/06/27 09:00 UTC NOAA

CYBW 270900Z AUTO 33006KT 9SM CLR 07/05 A3024 RMK SLP245


Station Type Date Time Source
CYBW Decoded METAR 2022/06/27 09:00 UTC NOAA

Calgary / Springbank, Canada (CYBW) 51-06N 114-22W
Jun 27, 2022 - 05:00 AM EDT / 2022.06.27 0900 UTC
Wind: from the NNW (330 degrees) at 7 MPH (6 KT):0
Visibility: 9 mile(s):0
Sky conditions: clear
Temperature: 44 F (7 C)
Dew Point: 41 F (5 C)
Relative Humidity: 87%
Pressure (altimeter): 30.24 in. Hg (1024 hPa)
ob: CYBW 270900Z AUTO 33006KT 9SM CLR 07/05 A3024 RMK SLP245
cycle: 9

Station Type Date Time Source
CYBW TAF 2022/06/26 18:00 UTC NOAA

TAF CYBW 261740Z 2618/2704 VRB03KT P6SM SKC
FM262300 12008KT P6SM FEW100
RMK FCST BASED ON AUTO OBS. NXT FCST BY 270000Z

Example: see airport list